sensor_id;sensor_type;location;lat;lon;timestamp;temperature;humidity
43185;DHT22;28803;52.308;19.096;2023-11-18T00:00:14;1.60;99.90
43185;DHT22;28803;52.308;19.096;2023-11-18T00:03:04;1.60;99.90
43185;DHT22;28803;52.308;19.096;2023-11-18T00:05:33;1.60;99.90
43185;DHT22;28803;52.308;19.096;2023-11-18T00:08:00;1.60;99.90
43185;DHT22;28803;52.308;19.096;2023-11-18T00:10:28;1.60;99.90
43185;DHT22;28803;52.308;19.096;2023-11-18T00:12:57;1.50;99.90
43185;DHT22;28803;52.308;19.096;2023-11-18T00:15:25;1.50;99.90
43185;DHT22;28803;52.308;19.096;2023-11-18T00:17:52;1.40;99.90
43185;DHT22;28803;52.308;19.096;2023-11-18T00:20:20;1.40;99.90
43185;DHT22;28803;52.308;19.096;2023-11-18T00:22:47;1.40;99.90
43185;DHT22;28803;52.308;19.096;2023-11-18T00:25:15;1.30;99.90
43185;DHT22;28803;52.308;19.096;2023-11-18T00:27:42;1.30;99.90
43185;DHT22;28803;52.308;19.096;2023-11-18T00:30:11;1.40;99.90
43185;DHT22;28803;52.308;19.096;2023-11-18T00:32:38;1.30;99.90
43185;DHT22;28803;52.308;19.096;2023-11-18T00:35:07;3.20;99.90
43185;DHT22;28803;52.308;19.096;2023-11-18T00:37:37;1.30;99.90
43185;DHT22;28803;52.308;19.096;2023-11-18T00:40:07;1.30;99.90
43185;DHT22;28803;52.308;19.096;2023-11-18T00:42:34;1.30;99.90
43185;DHT22;28803;52.308;19.096;2023-11-18T00:45:02;1.20;99.90
43185;DHT22;28803;52.308;19.096;2023-11-18T00:47:31;1.20;99.90
43185;DHT22;28803;52.308;19.096;2023-11-18T00:49:58;1.20;99.90
43185;DHT22;28803;52.308;19.096;2023-11-18T00:52:29;1.20;99.90
43185;DHT22;28803;52.308;19.096;2023-11-18T00:54:56;1.20;99.90
43185;DHT22;28803;52.308;19.096;2023-11-18T00:57:23;1.20;99.90
43185;DHT22;28803;52.308;19.096;2023-11-18T00:59:51;1.20;99.90
43185;DHT22;28803;52.308;19.096;2023-11-18T01:02:18;1.20;99.90
43185;DHT22;28803;52.308;19.096;2023-11-18T01:04:46;1.40;99.90
43185;DHT22;28803;52.308;19.096;2023-11-18T01:07:13;1.10;99.90
43185;DHT22;28803;52.308;19.096;2023-11-18T01:09:41;1.10;99.90
43185;DHT22;28803;52.308;19.096;2023-11-18T01:12:08;1.10;99.90
43185;DHT22;28803;52.308;19.096;2023-11-18T01:14:37;1.10;99.90
43185;DHT22;28803;52.308;19.096;2023-11-18T01:17:06;1.10;99.90
43185;DHT22;28803;52.308;19.096;2023-11-18T01:19:34;1.10;99.90
43185;DHT22;28803;52.308;19.096;2023-11-18T01:22:01;1.00;99.90
43185;DHT22;28803;52.308;19.096;2023-11-18T01:24:35;1.00;99.90
43185;DHT22;28803;52.308;19.096;2023-11-18T01:27:03;1.00;99.90
43185;DHT22;28803;52.308;19.096;2023-11-18T01:29:30;1.00;99.90
43185;DHT22;28803;52.308;19.096;2023-11-18T01:31:58;1.00;99.90
43185;DHT22;28803;52.308;19.096;2023-11-18T01:34:26;0.90;99.90
43185;DHT22;28803;52.308;19.096;2023-11-18T01:36:55;0.90;99.90
43185;DHT22;28803;52.308;19.096;2023-11-18T01:39:24;0.90;99.90
43185;DHT22;28803;52.308;19.096;2023-11-18T01:41:53;0.80;99.90
43185;DHT22;28803;52.308;19.096;2023-11-18T01:44:22;0.80;99.90
43185;DHT22;28803;52.308;19.096;2023-11-18T01:46:51;0.80;99.90
43185;DHT22;28803;52.308;19.096;2023-11-18T01:49:19;0.80;99.90
43185;DHT22;28803;52.308;19.096;2023-11-18T01:51:47;0.80;99.90
43185;DHT22;28803;52.308;19.096;2023-11-18T01:54:15;0.80;99.90
43185;DHT22;28803;52.308;19.096;2023-11-18T01:56:48;0.80;99.90
43185;DHT22;28803;52.308;19.096;2023-11-18T01:59:16;0.80;99.90
43185;DHT22;28803;52.308;19.096;2023-11-18T02:01:48;0.80;99.90
43185;DHT22;28803;52.308;19.096;2023-11-18T02:04:17;0.80;99.90
43185;DHT22;28803;52.308;19.096;2023-11-18T02:06:51;0.70;99.90
43185;DHT22;28803;52.308;19.096;2023-11-18T02:09:21;0.70;99.90
43185;DHT22;28803;52.308;19.096;2023-11-18T02:14:45;0.70;99.90
43185;DHT22;28803;52.308;19.096;2023-11-18T02:17:14;0.70;99.90
43185;DHT22;28803;52.308;19.096;2023-11-18T02:19:45;0.70;99.90
43185;DHT22;28803;52.308;19.096;2023-11-18T02:22:12;0.70;99.90
43185;DHT22;28803;52.308;19.096;2023-11-18T02:24:40;0.60;99.90
43185;DHT22;28803;52.308;19.096;2023-11-18T02:27:08;0.60;99.90
43185;DHT22;28803;52.308;19.096;2023-11-18T02:29:44;0.60;99.90
43185;DHT22;28803;52.308;19.096;2023-11-18T02:35:23;0.60;99.90
43185;DHT22;28803;52.308;19.096;2023-11-18T02:37:54;0.60;99.90
43185;DHT22;28803;52.308;19.096;2023-11-18T02:40:42;0.60;99.90
43185;DHT22;28803;52.308;19.096;2023-11-18T02:43:11;0.10;99.90
43185;DHT22;28803;52.308;19.096;2023-11-18T02:45:39;0.60;99.90
43185;DHT22;28803;52.308;19.096;2023-11-18T02:48:09;0.60;99.90
43185;DHT22;28803;52.308;19.096;2023-11-18T02:50:37;0.60;99.90
43185;DHT22;28803;52.308;19.096;2023-11-18T02:53:05;0.60;99.90
43185;DHT22;28803;52.308;19.096;2023-11-18T02:55:33;0.60;99.90
43185;DHT22;28803;52.308;19.096;2023-11-18T02:58:00;0.60;99.90
43185;DHT22;28803;52.308;19.096;2023-11-18T03:00:34;0.60;99.90
43185;DHT22;28803;52.308;19.096;2023-11-18T03:03:01;0.60;99.90
43185;DHT22;28803;52.308;19.096;2023-11-18T03:05:31;0.60;99.90
43185;DHT22;28803;52.308;19.096;2023-11-18T03:07:58;0.60;99.90
43185;DHT22;28803;52.308;19.096;2023-11-18T03:10:26;0.60;99.90
43185;DHT22;28803;52.308;19.096;2023-11-18T03:12:53;0.50;99.90
43185;DHT22;28803;52.308;19.096;2023-11-18T03:15:22;0.10;99.90
43185;DHT22;28803;52.308;19.096;2023-11-18T03:17:51;0.50;99.90
43185;DHT22;28803;52.308;19.096;2023-11-18T03:20:20;0.50;99.90
43185;DHT22;28803;52.308;19.096;2023-11-18T03:22:50;0.50;99.90
43185;DHT22;28803;52.308;19.096;2023-11-18T03:25:19;0.50;99.90
43185;DHT22;28803;52.308;19.096;2023-11-18T03:27:48;0.50;99.90
43185;DHT22;28803;52.308;19.096;2023-11-18T03:30:16;0.50;99.90
43185;DHT22;28803;52.308;19.096;2023-11-18T03:32:44;0.50;99.90
43185;DHT22;28803;52.308;19.096;2023-11-18T03:35:13;0.50;99.90
43185;DHT22;28803;52.308;19.096;2023-11-18T03:37:41;0.40;99.90
43185;DHT22;28803;52.308;19.096;2023-11-18T03:40:12;0.50;99.90
43185;DHT22;28803;52.308;19.096;2023-11-18T03:42:40;0.50;99.90
43185;DHT22;28803;52.308;19.096;2023-11-18T03:45:09;0.40;99.90
43185;DHT22;28803;52.308;19.096;2023-11-18T03:47:37;0.50;99.90
43185;DHT22;28803;52.308;19.096;2023-11-18T03:50:06;0.40;99.90
43185;DHT22;28803;52.308;19.096;2023-11-18T03:52:36;0.50;99.90
43185;DHT22;28803;52.308;19.096;2023-11-18T03:55:05;0.50;99.90
43185;DHT22;28803;52.308;19.096;2023-11-18T03:57:33;0.40;99.90
43185;DHT22;28803;52.308;19.096;2023-11-18T04:00:01;0.40;99.90
43185;DHT22;28803;52.308;19.096;2023-11-18T04:02:29;0.50;99.90
43185;DHT22;28803;52.308;19.096;2023-11-18T04:04:57;0.40;99.90
43185;DHT22;28803;52.308;19.096;2023-11-18T04:07:24;0.40;99.90
43185;DHT22;28803;52.308;19.096;2023-11-18T04:09:52;0.40;99.90
43185;DHT22;28803;52.308;19.096;2023-11-18T04:12:19;0.50;99.90
43185;DHT22;28803;52.308;19.096;2023-11-18T04:17:14;0.50;99.90
43185;DHT22;28803;52.308;19.096;2023-11-18T04:19:41;0.40;99.90
43185;DHT22;28803;52.308;19.096;2023-11-18T04:22:08;0.40;99.90
43185;DHT22;28803;52.308;19.096;2023-11-18T04:24:36;0.40;99.90
43185;DHT22;28803;52.308;19.096;2023-11-18T04:27:04;0.40;99.90
43185;DHT22;28803;52.308;19.096;2023-11-18T04:29:31;0.40;99.90
43185;DHT22;28803;52.308;19.096;2023-11-18T04:31:59;0.40;99.90
43185;DHT22;28803;52.308;19.096;2023-11-18T04:34:27;0.40;99.90
43185;DHT22;28803;52.308;19.096;2023-11-18T04:36:54;0.40;99.90
43185;DHT22;28803;52.308;19.096;2023-11-18T04:39:22;0.40;99.90
43185;DHT22;28803;52.308;19.096;2023-11-18T04:41:49;0.40;99.90
43185;DHT22;28803;52.308;19.096;2023-11-18T04:44:17;0.40;99.90
43185;DHT22;28803;52.308;19.096;2023-11-18T04:46:45;0.40;99.90
43185;DHT22;28803;52.308;19.096;2023-11-18T04:49:12;0.40;99.90
43185;DHT22;28803;52.308;19.096;2023-11-18T04:51:40;0.40;99.90
43185;DHT22;28803;52.308;19.096;2023-11-18T04:54:07;0.40;99.90
43185;DHT22;28803;52.308;19.096;2023-11-18T04:56:35;0.40;99.90
43185;DHT22;28803;52.308;19.096;2023-11-18T04:59:03;0.40;99.90
43185;DHT22;28803;52.308;19.096;2023-11-18T05:01:34;0.40;99.90
43185;DHT22;28803;52.308;19.096;2023-11-18T05:04:01;0.40;99.90
43185;DHT22;28803;52.308;19.096;2023-11-18T05:06:28;0.40;99.90
43185;DHT22;28803;52.308;19.096;2023-11-18T05:08:56;0.40;99.90
43185;DHT22;28803;52.308;19.096;2023-11-18T05:11:23;0.40;99.90
43185;DHT22;28803;52.308;19.096;2023-11-18T05:13:51;0.30;99.90
43185;DHT22;28803;52.308;19.096;2023-11-18T05:16:20;0.40;99.90
43185;DHT22;28803;52.308;19.096;2023-11-18T05:18:48;0.40;99.90
43185;DHT22;28803;52.308;19.096;2023-11-18T05:21:15;0.40;99.90
43185;DHT22;28803;52.308;19.096;2023-11-18T05:23:43;0.40;99.90
43185;DHT22;28803;52.308;19.096;2023-11-18T05:26:10;0.40;99.90
43185;DHT22;28803;52.308;19.096;2023-11-18T05:28:38;0.40;99.90
43185;DHT22;28803;52.308;19.096;2023-11-18T05:31:05;0.30;99.90
43185;DHT22;28803;52.308;19.096;2023-11-18T05:33:33;0.40;99.90
43185;DHT22;28803;52.308;19.096;2023-11-18T05:36:03;0.30;99.90
43185;DHT22;28803;52.308;19.096;2023-11-18T05:38:32;0.30;99.90
43185;DHT22;28803;52.308;19.096;2023-11-18T05:41:02;0.30;99.90
43185;DHT22;28803;52.308;19.096;2023-11-18T05:43:32;0.40;99.90
43185;DHT22;28803;52.308;19.096;2023-11-18T05:46:18;0.40;99.90
43185;DHT22;28803;52.308;19.096;2023-11-18T05:48:48;0.40;99.90
43185;DHT22;28803;52.308;19.096;2023-11-18T05:51:24;0.40;99.90
43185;DHT22;28803;52.308;19.096;2023-11-18T05:53:53;0.40;99.90
43185;DHT22;28803;52.308;19.096;2023-11-18T05:56:20;0.40;99.90
43185;DHT22;28803;52.308;19.096;2023-11-18T05:58:52;0.40;99.90
43185;DHT22;28803;52.308;19.096;2023-11-18T06:01:21;0.30;99.90
43185;DHT22;28803;52.308;19.096;2023-11-18T06:03:49;0.40;99.90
43185;DHT22;28803;52.308;19.096;2023-11-18T06:06:18;0.30;99.90
43185;DHT22;28803;52.308;19.096;2023-11-18T06:08:50;0.40;99.90
43185;DHT22;28803;52.308;19.096;2023-11-18T06:11:19;0.30;99.90
43185;DHT22;28803;52.308;19.096;2023-11-18T06:13:48;0.30;99.90
43185;DHT22;28803;52.308;19.096;2023-11-18T06:16:21;0.40;99.90
43185;DHT22;28803;52.308;19.096;2023-11-18T06:18:50;0.40;99.90
43185;DHT22;28803;52.308;19.096;2023-11-18T06:21:20;0.30;99.90
43185;DHT22;28803;52.308;19.096;2023-11-18T06:23:51;0.30;99.90
43185;DHT22;28803;52.308;19.096;2023-11-18T06:26:19;0.30;99.90
43185;DHT22;28803;52.308;19.096;2023-11-18T06:28:48;0.30;99.90
43185;DHT22;28803;52.308;19.096;2023-11-18T06:31:18;0.30;99.90
43185;DHT22;28803;52.308;19.096;2023-11-18T06:33:47;0.30;99.90
43185;DHT22;28803;52.308;19.096;2023-11-18T06:36:17;0.40;99.90
43185;DHT22;28803;52.308;19.096;2023-11-18T06:38:49;0.30;99.90
43185;DHT22;28803;52.308;19.096;2023-11-18T06:41:18;0.20;99.90
43185;DHT22;28803;52.308;19.096;2023-11-18T06:43:46;0.30;99.90
43185;DHT22;28803;52.308;19.096;2023-11-18T06:46:32;0.30;99.90
43185;DHT22;28803;52.308;19.096;2023-11-18T06:49:03;0.30;99.90
43185;DHT22;28803;52.308;19.096;2023-11-18T06:51:33;0.30;99.90
43185;DHT22;28803;52.308;19.096;2023-11-18T06:54:07;0.30;99.90
43185;DHT22;28803;52.308;19.096;2023-11-18T06:56:42;0.30;99.90
43185;DHT22;28803;52.308;19.096;2023-11-18T06:59:15;0.30;99.90
43185;DHT22;28803;52.308;19.096;2023-11-18T07:01:43;0.40;99.90
43185;DHT22;28803;52.308;19.096;2023-11-18T07:04:13;0.40;99.90
43185;DHT22;28803;52.308;19.096;2023-11-18T07:06:43;0.40;99.90
43185;DHT22;28803;52.308;19.096;2023-11-18T07:09:11;0.40;99.90
43185;DHT22;28803;52.308;19.096;2023-11-18T07:11:48;0.40;99.90
43185;DHT22;28803;52.308;19.096;2023-11-18T07:14:16;0.40;99.90
43185;DHT22;28803;52.308;19.096;2023-11-18T07:16:44;0.40;99.90
43185;DHT22;28803;52.308;19.096;2023-11-18T07:19:12;0.40;99.90
43185;DHT22;28803;52.308;19.096;2023-11-18T07:21:49;0.40;99.90
43185;DHT22;28803;52.308;19.096;2023-11-18T07:24:17;0.40;99.90
43185;DHT22;28803;52.308;19.096;2023-11-18T07:26:45;0.50;99.90
43185;DHT22;28803;52.308;19.096;2023-11-18T07:29:13;0.40;99.90
43185;DHT22;28803;52.308;19.096;2023-11-18T07:31:41;0.50;99.90
43185;DHT22;28803;52.308;19.096;2023-11-18T07:36:37;0.50;99.90
43185;DHT22;28803;52.308;19.096;2023-11-18T07:39:04;0.50;99.90
43185;DHT22;28803;52.308;19.096;2023-11-18T07:41:32;0.50;99.90
43185;DHT22;28803;52.308;19.096;2023-11-18T07:44:00;0.50;99.90
43185;DHT22;28803;52.308;19.096;2023-11-18T07:46:29;0.50;99.90
43185;DHT22;28803;52.308;19.096;2023-11-18T07:48:58;0.50;99.90
43185;DHT22;28803;52.308;19.096;2023-11-18T07:51:29;0.50;99.90
43185;DHT22;28803;52.308;19.096;2023-11-18T07:53:57;0.50;99.90
43185;DHT22;28803;52.308;19.096;2023-11-18T07:56:24;0.60;99.90
43185;DHT22;28803;52.308;19.096;2023-11-18T07:58:54;0.60;99.90
43185;DHT22;28803;52.308;19.096;2023-11-18T08:01:22;0.60;99.90
43185;DHT22;28803;52.308;19.096;2023-11-18T08:03:49;0.60;99.90
43185;DHT22;28803;52.308;19.096;2023-11-18T08:06:18;0.60;99.90
43185;DHT22;28803;52.308;19.096;2023-11-18T08:08:45;0.60;99.90
43185;DHT22;28803;52.308;19.096;2023-11-18T08:11:15;0.60;99.90
43185;DHT22;28803;52.308;19.096;2023-11-18T08:13:44;0.60;99.90
43185;DHT22;28803;52.308;19.096;2023-11-18T08:16:11;0.60;99.90
43185;DHT22;28803;52.308;19.096;2023-11-18T08:18:40;0.70;99.90
43185;DHT22;28803;52.308;19.096;2023-11-18T08:21:08;0.30;99.90
43185;DHT22;28803;52.308;19.096;2023-11-18T08:23:35;0.70;99.90
43185;DHT22;28803;52.308;19.096;2023-11-18T08:26:03;0.80;99.90
43185;DHT22;28803;52.308;19.096;2023-11-18T08:28:33;1.00;99.90
43185;DHT22;28803;52.308;19.096;2023-11-18T08:31:01;1.10;99.90
43185;DHT22;28803;52.308;19.096;2023-11-18T08:33:29;1.10;99.90
43185;DHT22;28803;52.308;19.096;2023-11-18T08:35:57;1.20;99.90
43185;DHT22;28803;52.308;19.096;2023-11-18T08:38:25;1.30;99.90
43185;DHT22;28803;52.308;19.096;2023-11-18T08:40:54;1.30;99.90
43185;DHT22;28803;52.308;19.096;2023-11-18T08:43:22;1.50;99.90
43185;DHT22;28803;52.308;19.096;2023-11-18T08:45:49;1.60;99.90
43185;DHT22;28803;52.308;19.096;2023-11-18T08:48:17;1.70;99.90
43185;DHT22;28803;52.308;19.096;2023-11-18T08:50:46;1.80;99.90
43185;DHT22;28803;52.308;19.096;2023-11-18T08:53:15;1.80;99.90
43185;DHT22;28803;52.308;19.096;2023-11-18T08:55:45;1.70;99.90
43185;DHT22;28803;52.308;19.096;2023-11-18T08:58:22;1.70;99.90
43185;DHT22;28803;52.308;19.096;2023-11-18T09:00:56;1.70;99.90
43185;DHT22;28803;52.308;19.096;2023-11-18T09:03:31;1.60;99.90
43185;DHT22;28803;52.308;19.096;2023-11-18T09:06:04;1.40;99.90
43185;DHT22;28803;52.308;19.096;2023-11-18T09:08:37;1.50;99.90
43185;DHT22;28803;52.308;19.096;2023-11-18T09:11:07;1.40;99.90
43185;DHT22;28803;52.308;19.096;2023-11-18T09:13:36;1.50;99.90
43185;DHT22;28803;52.308;19.096;2023-11-18T09:16:07;1.50;99.90
43185;DHT22;28803;52.308;19.096;2023-11-18T09:18:41;1.40;99.90
43185;DHT22;28803;52.308;19.096;2023-11-18T09:21:11;1.40;99.90
43185;DHT22;28803;52.308;19.096;2023-11-18T09:23:44;1.40;99.90
43185;DHT22;28803;52.308;19.096;2023-11-18T09:26:12;1.50;99.90
43185;DHT22;28803;52.308;19.096;2023-11-18T09:28:40;1.40;99.90
43185;DHT22;28803;52.308;19.096;2023-11-18T09:31:08;1.40;99.90
43185;DHT22;28803;52.308;19.096;2023-11-18T09:33:40;1.40;99.90
43185;DHT22;28803;52.308;19.096;2023-11-18T09:36:14;1.40;99.90
43185;DHT22;28803;52.308;19.096;2023-11-18T09:38:41;1.30;99.90
43185;DHT22;28803;52.308;19.096;2023-11-18T09:41:12;1.30;99.90
43185;DHT22;28803;52.308;19.096;2023-11-18T09:43:42;1.20;99.90
43185;DHT22;28803;52.308;19.096;2023-11-18T09:46:17;1.20;99.90
43185;DHT22;28803;52.308;19.096;2023-11-18T09:48:59;1.20;99.90
43185;DHT22;28803;52.308;19.096;2023-11-18T09:51:38;1.20;99.90
43185;DHT22;28803;52.308;19.096;2023-11-18T09:54:30;1.20;99.90
43185;DHT22;28803;52.308;19.096;2023-11-18T09:57:49;1.10;99.90
43185;DHT22;28803;52.308;19.096;2023-11-18T10:00:26;1.20;99.90
43185;DHT22;28803;52.308;19.096;2023-11-18T10:02:59;1.20;99.90
43185;DHT22;28803;52.308;19.096;2023-11-18T10:05:29;1.20;99.90
43185;DHT22;28803;52.308;19.096;2023-11-18T10:07:57;1.50;99.90
43185;DHT22;28803;52.308;19.096;2023-11-18T10:10:26;1.50;99.90
43185;DHT22;28803;52.308;19.096;2023-11-18T10:13:04;1.70;99.90
43185;DHT22;28803;52.308;19.096;2023-11-18T10:15:35;1.90;99.90
43185;DHT22;28803;52.308;19.096;2023-11-18T10:18:03;2.00;99.90
43185;DHT22;28803;52.308;19.096;2023-11-18T10:20:45;2.10;99.90
43185;DHT22;28803;52.308;19.096;2023-11-18T10:23:14;2.10;99.90
43185;DHT22;28803;52.308;19.096;2023-11-18T10:25:52;2.10;99.90
43185;DHT22;28803;52.308;19.096;2023-11-18T10:28:28;1.90;99.90
43185;DHT22;28803;52.308;19.096;2023-11-18T10:31:18;1.80;99.90
43185;DHT22;28803;52.308;19.096;2023-11-18T10:33:45;1.80;99.90
43185;DHT22;28803;52.308;19.096;2023-11-18T10:36:21;1.70;99.90
43185;DHT22;28803;52.308;19.096;2023-11-18T10:38:51;1.60;99.90
43185;DHT22;28803;52.308;19.096;2023-11-18T10:41:23;1.60;99.90
43185;DHT22;28803;52.308;19.096;2023-11-18T10:44:07;1.50;99.90
43185;DHT22;28803;52.308;19.096;2023-11-18T10:46:35;1.50;99.90
43185;DHT22;28803;52.308;19.096;2023-11-18T10:49:03;1.50;99.90
43185;DHT22;28803;52.308;19.096;2023-11-18T10:51:39;1.50;99.90
43185;DHT22;28803;52.308;19.096;2023-11-18T10:54:08;1.50;99.90
43185;DHT22;28803;52.308;19.096;2023-11-18T10:56:47;1.60;99.90
43185;DHT22;28803;52.308;19.096;2023-11-18T10:59:16;1.60;99.90
43185;DHT22;28803;52.308;19.096;2023-11-18T11:01:45;1.60;99.90
43185;DHT22;28803;52.308;19.096;2023-11-18T11:04:17;1.60;99.90
43185;DHT22;28803;52.308;19.096;2023-11-18T11:06:50;1.60;99.90
43185;DHT22;28803;52.308;19.096;2023-11-18T11:09:22;1.70;99.90
43185;DHT22;28803;52.308;19.096;2023-11-18T11:11:57;1.80;99.90
43185;DHT22;28803;52.308;19.096;2023-11-18T11:14:34;1.70;99.90
43185;DHT22;28803;52.308;19.096;2023-11-18T11:17:13;1.60;99.90
43185;DHT22;28803;52.308;19.096;2023-11-18T11:19:55;1.60;99.90
43185;DHT22;28803;52.308;19.096;2023-11-18T11:22:36;1.70;99.90
43185;DHT22;28803;52.308;19.096;2023-11-18T11:25:16;1.70;99.90
43185;DHT22;28803;52.308;19.096;2023-11-18T11:28:05;1.80;99.90
43185;DHT22;28803;52.308;19.096;2023-11-18T11:31:03;1.60;99.90
43185;DHT22;28803;52.308;19.096;2023-11-18T11:33:42;1.60;99.90
43185;DHT22;28803;52.308;19.096;2023-11-18T11:36:12;1.50;99.90
43185;DHT22;28803;52.308;19.096;2023-11-18T11:38:44;1.60;99.90
43185;DHT22;28803;52.308;19.096;2023-11-18T11:41:14;1.60;99.90
43185;DHT22;28803;52.308;19.096;2023-11-18T11:43:54;1.60;99.90
43185;DHT22;28803;52.308;19.096;2023-11-18T11:46:26;1.60;99.90
43185;DHT22;28803;52.308;19.096;2023-11-18T11:49:04;1.70;99.90
43185;DHT22;28803;52.308;19.096;2023-11-18T11:51:52;1.70;99.90
43185;DHT22;28803;52.308;19.096;2023-11-18T11:54:31;1.70;99.90
43185;DHT22;28803;52.308;19.096;2023-11-18T11:57:04;1.70;99.90
43185;DHT22;28803;52.308;19.096;2023-11-18T12:02:14;1.60;99.90
43185;DHT22;28803;52.308;19.096;2023-11-18T12:04:54;1.60;99.90
43185;DHT22;28803;52.308;19.096;2023-11-18T12:07:26;1.60;99.90
43185;DHT22;28803;52.308;19.096;2023-11-18T12:10:00;1.70;99.90
43185;DHT22;28803;52.308;19.096;2023-11-18T12:12:28;1.60;99.90
43185;DHT22;28803;52.308;19.096;2023-11-18T12:14:59;1.60;99.90
43185;DHT22;28803;52.308;19.096;2023-11-18T12:20:42;1.60;99.90
43185;DHT22;28803;52.308;19.096;2023-11-18T12:23:14;1.50;99.90
43185;DHT22;28803;52.308;19.096;2023-11-18T12:25:44;1.40;99.90
43185;DHT22;28803;52.308;19.096;2023-11-18T12:28:16;1.30;99.90
43185;DHT22;28803;52.308;19.096;2023-11-18T12:30:45;1.30;99.90
43185;DHT22;28803;52.308;19.096;2023-11-18T12:39:32;1.30;99.90
43185;DHT22;28803;52.308;19.096;2023-11-18T12:42:08;1.30;99.90
43185;DHT22;28803;52.308;19.096;2023-11-18T12:47:43;1.20;99.90
43185;DHT22;28803;52.308;19.096;2023-11-18T12:50:15;1.10;99.90
43185;DHT22;28803;52.308;19.096;2023-11-18T12:52:53;1.10;99.90
43185;DHT22;28803;52.308;19.096;2023-11-18T12:55:20;1.10;99.90
43185;DHT22;28803;52.308;19.096;2023-11-18T12:57:48;1.10;99.90
43185;DHT22;28803;52.308;19.096;2023-11-18T13:00:18;1.10;99.90
43185;DHT22;28803;52.308;19.096;2023-11-18T13:02:55;1.10;99.90
43185;DHT22;28803;52.308;19.096;2023-11-18T13:05:32;1.20;99.90
43185;DHT22;28803;52.308;19.096;2023-11-18T13:07:59;1.20;99.90
43185;DHT22;28803;52.308;19.096;2023-11-18T13:10:28;1.20;99.90
43185;DHT22;28803;52.308;19.096;2023-11-18T13:12:56;1.20;99.90
43185;DHT22;28803;52.308;19.096;2023-11-18T13:15:25;1.20;99.90
43185;DHT22;28803;52.308;19.096;2023-11-18T13:17:57;1.20;99.90
43185;DHT22;28803;52.308;19.096;2023-11-18T13:20:25;1.20;99.90
43185;DHT22;28803;52.308;19.096;2023-11-18T13:22:53;1.30;99.90
43185;DHT22;28803;52.308;19.096;2023-11-18T13:25:23;1.30;99.90
43185;DHT22;28803;52.308;19.096;2023-11-18T13:27:53;1.30;99.90
43185;DHT22;28803;52.308;19.096;2023-11-18T13:30:21;1.40;99.90
43185;DHT22;28803;52.308;19.096;2023-11-18T13:32:49;1.40;99.90
43185;DHT22;28803;52.308;19.096;2023-11-18T13:35:17;1.40;99.90
43185;DHT22;28803;52.308;19.096;2023-11-18T13:37:47;1.40;99.90
43185;DHT22;28803;52.308;19.096;2023-11-18T13:40:21;1.40;99.90
43185;DHT22;28803;52.308;19.096;2023-11-18T13:43:03;1.40;99.90
43185;DHT22;28803;52.308;19.096;2023-11-18T13:45:36;1.50;99.90
43185;DHT22;28803;52.308;19.096;2023-11-18T13:48:05;1.50;99.90
43185;DHT22;28803;52.308;19.096;2023-11-18T13:50:43;1.50;99.90
43185;DHT22;28803;52.308;19.096;2023-11-18T13:53:11;1.50;99.90
43185;DHT22;28803;52.308;19.096;2023-11-18T13:55:40;1.40;99.90
43185;DHT22;28803;52.308;19.096;2023-11-18T13:58:08;1.50;99.90
43185;DHT22;28803;52.308;19.096;2023-11-18T14:00:37;1.50;99.90
43185;DHT22;28803;52.308;19.096;2023-11-18T14:03:05;1.50;99.90
43185;DHT22;28803;52.308;19.096;2023-11-18T14:05:38;1.50;99.90
43185;DHT22;28803;52.308;19.096;2023-11-18T14:08:06;1.40;99.90
43185;DHT22;28803;52.308;19.096;2023-11-18T14:10:37;1.40;99.90
43185;DHT22;28803;52.308;19.096;2023-11-18T14:13:07;1.40;99.90
43185;DHT22;28803;52.308;19.096;2023-11-18T14:15:40;1.40;99.90
43185;DHT22;28803;52.308;19.096;2023-11-18T14:18:10;1.40;99.90
43185;DHT22;28803;52.308;19.096;2023-11-18T14:20:38;1.40;99.90
43185;DHT22;28803;52.308;19.096;2023-11-18T14:23:05;1.40;99.90
43185;DHT22;28803;52.308;19.096;2023-11-18T14:25:33;1.40;99.90
43185;DHT22;28803;52.308;19.096;2023-11-18T14:28:01;1.40;99.90
43185;DHT22;28803;52.308;19.096;2023-11-18T14:30:29;1.40;99.90
43185;DHT22;28803;52.308;19.096;2023-11-18T14:32:58;1.40;99.90
43185;DHT22;28803;52.308;19.096;2023-11-18T14:35:26;1.40;99.90
43185;DHT22;28803;52.308;19.096;2023-11-18T14:37:56;1.40;99.90
43185;DHT22;28803;52.308;19.096;2023-11-18T14:40:24;1.40;99.90
43185;DHT22;28803;52.308;19.096;2023-11-18T14:42:52;1.40;99.90
43185;DHT22;28803;52.308;19.096;2023-11-18T14:45:19;1.40;99.90
43185;DHT22;28803;52.308;19.096;2023-11-18T14:47:47;1.40;99.90
43185;DHT22;28803;52.308;19.096;2023-11-18T14:50:21;1.50;99.90
43185;DHT22;28803;52.308;19.096;2023-11-18T14:52:51;1.50;99.90
43185;DHT22;28803;52.308;19.096;2023-11-18T14:55:21;1.50;99.90
43185;DHT22;28803;52.308;19.096;2023-11-18T14:57:49;1.50;99.90
43185;DHT22;28803;52.308;19.096;2023-11-18T15:00:17;1.40;99.90
43185;DHT22;28803;52.308;19.096;2023-11-18T15:02:54;1.40;99.90
43185;DHT22;28803;52.308;19.096;2023-11-18T15:05:26;1.40;99.90
43185;DHT22;28803;52.308;19.096;2023-11-18T15:07:55;1.40;99.90
43185;DHT22;28803;52.308;19.096;2023-11-18T15:10:25;1.40;99.90
43185;DHT22;28803;52.308;19.096;2023-11-18T15:12:55;1.40;99.90
43185;DHT22;28803;52.308;19.096;2023-11-18T15:15:30;1.40;99.90
43185;DHT22;28803;52.308;19.096;2023-11-18T15:18:04;1.40;99.90
43185;DHT22;28803;52.308;19.096;2023-11-18T15:20:41;1.40;99.90
43185;DHT22;28803;52.308;19.096;2023-11-18T15:23:14;1.40;99.90
43185;DHT22;28803;52.308;19.096;2023-11-18T15:25:45;1.40;99.90
43185;DHT22;28803;52.308;19.096;2023-11-18T15:28:13;1.40;99.90
43185;DHT22;28803;52.308;19.096;2023-11-18T15:30:41;1.40;99.90
43185;DHT22;28803;52.308;19.096;2023-11-18T15:33:11;1.40;99.90
43185;DHT22;28803;52.308;19.096;2023-11-18T15:35:42;1.40;99.90
43185;DHT22;28803;52.308;19.096;2023-11-18T15:38:13;1.30;99.90
43185;DHT22;28803;52.308;19.096;2023-11-18T15:40:45;1.30;99.90
43185;DHT22;28803;52.308;19.096;2023-11-18T15:43:12;1.30;99.90
43185;DHT22;28803;52.308;19.096;2023-11-18T15:45:40;1.40;99.90
43185;DHT22;28803;52.308;19.096;2023-11-18T15:48:07;1.40;99.90
43185;DHT22;28803;52.308;19.096;2023-11-18T15:50:37;1.30;99.90
43185;DHT22;28803;52.308;19.096;2023-11-18T15:53:06;1.30;99.90
43185;DHT22;28803;52.308;19.096;2023-11-18T15:55:33;1.30;99.90
43185;DHT22;28803;52.308;19.096;2023-11-18T15:58:04;1.30;99.90
43185;DHT22;28803;52.308;19.096;2023-11-18T16:00:32;1.30;99.90
43185;DHT22;28803;52.308;19.096;2023-11-18T16:02:59;1.30;99.90
43185;DHT22;28803;52.308;19.096;2023-11-18T16:05:29;1.30;99.90
43185;DHT22;28803;52.308;19.096;2023-11-18T16:08:03;1.30;99.90
43185;DHT22;28803;52.308;19.096;2023-11-18T16:10:31;1.30;99.90
43185;DHT22;28803;52.308;19.096;2023-11-18T16:13:00;1.30;99.90
43185;DHT22;28803;52.308;19.096;2023-11-18T16:15:29;1.20;99.90